»·PEaware :: N206DS KABQ-KCOS

N206DS :: KABQ-KCOS

FLIGHT INFORMATION

Flight Status: Arrived
Operator: Privately registered:
United States
More flights under this callsign
Pilot: Anonymous 26047 (26047)
Aircraft: BEECH AIRCRAFT BARON
(BE58)
More flights by this aircraft type
Origin: KABQ Albuquerque Intl Sunport
United States
Destination: KCOS City Of Colorado Springs Mun
United States
More flights between these airports :: More routes between these airports
Route: ABQ V190 FTI V611 BRK
File this flight plan on PilotEdge
Remarks:
Altitude:
(Current/Filed)
11,500ft
Speed:
(Current/Filed)
190kts
Departed: 07-Jan-20 07:18 PM
Arrived: 07-Jan-20 08:52 PM
Distance/Time
Traveled:
243nm/1:34
Distance/Time
To Go:
Arrived

Flight Plot

Page will automatically refresh every two minutes.

Flight plan parsing failed; only flown route is shown


Map Options




Map Legend


Flown Route
Filed Route
Departure Airport
Arrival Airport
Navaid (VOR, NDB)
Fix

Horizontal Profiles

Position Reports

Time Latitude Longitude Heading Altitude Ground
Speed
07-Jan-20 18:57 35.034697 -106.619728 46 5358ft 0kts
07-Jan-20 18:58 35.034697 -106.619728 46 5358ft 0kts
07-Jan-20 18:59 35.034697 -106.619728 46 5358ft 0kts
07-Jan-20 19:00 35.034697 -106.619728 46 5358ft 0kts
07-Jan-20 19:01 35.034697 -106.619728 46 5358ft 0kts
07-Jan-20 19:02 35.034697 -106.619728 46 5358ft 0kts
07-Jan-20 19:03 35.034697 -106.619728 46 5358ft 0kts
07-Jan-20 19:04 35.034697 -106.619728 46 5358ft 0kts
07-Jan-20 19:05 35.034697 -106.619728 46 5358ft 0kts
07-Jan-20 19:05 35.034697 -106.619728 46 5358ft 0kts
07-Jan-20 19:07 35.034697 -106.619728 46 5358ft 0kts
07-Jan-20 19:07 35.034452 -106.618639 134 5358ft 11kts
07-Jan-20 19:09 35.030654 -106.622617 222 5358ft 20kts
07-Jan-20 19:09 35.027057 -106.626929 225 5358ft 22kts
07-Jan-20 19:10 35.023872 -106.631230 165 5358ft 0kts
07-Jan-20 19:12 35.023871 -106.631230 165 5358ft 0kts
07-Jan-20 19:12 35.023872 -106.631230 165 5358ft 0kts
07-Jan-20 19:13 35.023872 -106.631230 165 5358ft 0kts
07-Jan-20 19:14 35.023870 -106.631229 165 5358ft 0kts
07-Jan-20 19:15 35.022903 -106.631200 139 5358ft 0kts
07-Jan-20 19:16 35.022688 -106.630953 136 5358ft 7kts
07-Jan-20 19:17 35.035638 -106.614925 42 5682ft 115kts
07-Jan-20 19:18 35.071200 -106.606706 19 6588ft 141kts
07-Jan-20 19:19 35.107216 -106.579102 30 7156ft 163kts
07-Jan-20 19:20 35.150128 -106.555887 20 7715ft 168kts
07-Jan-20 19:21 35.193954 -106.537212 2 8339ft 167kts
07-Jan-20 19:22 35.237628 -106.518095 34 9038ft 162kts
07-Jan-20 19:23 35.272756 -106.479866 50 9476ft 173kts
07-Jan-20 19:24 35.278562 -106.421822 107 9580ft 187kts
07-Jan-20 19:25 35.262682 -106.358863 108 9494ft 193kts
07-Jan-20 19:26 35.249578 -106.295231 89 9474ft 190kts
07-Jan-20 19:27 35.259651 -106.230352 70 9495ft 194kts
07-Jan-20 19:28 35.278432 -106.167481 65 9497ft 195kts
07-Jan-20 19:29 35.299364 -106.105981 64 9497ft 195kts
07-Jan-20 19:30 35.320963 -106.044466 63 9498ft 195kts
07-Jan-20 19:31 35.342521 -105.983493 63 9516ft 194kts
07-Jan-20 19:32 35.363970 -105.922011 69 9491ft 197kts
07-Jan-20 19:33 35.381372 -105.858135 67 9495ft 196kts
07-Jan-20 19:34 35.404773 -105.798023 60 9502ft 194kts
07-Jan-20 19:35 35.428066 -105.737832 61 9490ft 195kts
07-Jan-20 19:36 35.439651 -105.672136 83 9482ft 201kts
07-Jan-20 19:37 35.443861 -105.604417 82 9533ft 199kts
07-Jan-20 19:38 35.453197 -105.537789 60 9536ft 197kts
07-Jan-20 19:39 35.481912 -105.480740 52 9504ft 195kts
07-Jan-20 19:40 35.511197 -105.424011 53 9504ft 195kts
07-Jan-20 19:41 35.540158 -105.367397 53 9505ft 195kts
07-Jan-20 19:42 35.569026 -105.310141 54 9499ft 194kts
07-Jan-20 19:43 35.597788 -105.253322 53 9501ft 194kts
07-Jan-20 19:44 35.627376 -105.197825 53 9502ft 193kts
07-Jan-20 19:45 35.658602 -105.144029 50 9506ft 193kts
07-Jan-20 19:46 35.705486 -105.119488 8 9510ft 185kts
07-Jan-20 19:47 35.755933 -105.104802 10 9503ft 186kts
07-Jan-20 19:48 35.806352 -105.089502 11 9496ft 185kts
07-Jan-20 19:49 35.856556 -105.074001 11 9500ft 185kts
07-Jan-20 19:50 35.906610 -105.058496 11 9502ft 184kts
07-Jan-20 19:51 35.956640 -105.042968 11 9502ft 184kts
07-Jan-20 19:52 36.006930 -105.027337 11 9502ft 184kts
07-Jan-20 19:53 36.056870 -105.011796 11 9503ft 184kts
07-Jan-20 19:54 36.106344 -104.993386 15 9570ft 185kts
07-Jan-20 19:55 36.156293 -104.975835 11 9569ft 185kts
07-Jan-20 19:56 36.206636 -104.960506 11 9567ft 186kts
07-Jan-20 19:57 36.256995 -104.944925 11 9570ft 185kts
07-Jan-20 19:58 36.307406 -104.929303 11 9563ft 185kts
07-Jan-20 19:59 36.357826 -104.913671 11 9565ft 185kts
07-Jan-20 20:00 36.407838 -104.898215 11 9566ft 185kts
07-Jan-20 20:01 36.457784 -104.882774 11 9567ft 185kts
07-Jan-20 20:02 36.508232 -104.868401 4 9558ft 184kts
07-Jan-20 20:03 36.558964 -104.855951 8 9561ft 185kts
07-Jan-20 20:04 36.607827 -104.843848 8 9925ft 172kts
07-Jan-20 20:05 36.654217 -104.832462 7 10311ft 168kts
07-Jan-20 20:06 36.701162 -104.821001 7 10493ft 176kts
07-Jan-20 20:07 36.750920 -104.808823 7 10464ft 183kts
07-Jan-20 20:08 36.801814 -104.796326 7 10459ft 184kts
07-Jan-20 20:09 36.852714 -104.783838 7 10456ft 184kts
07-Jan-20 20:10 36.903316 -104.771403 7 10455ft 185kts
07-Jan-20 20:11 36.953579 -104.759030 7 10559ft 181kts
07-Jan-20 20:12 37.003965 -104.746582 5 10542ft 186kts
07-Jan-20 20:13 37.055297 -104.733912 4 10563ft 187kts
07-Jan-20 20:14 37.107377 -104.721092 5 10520ft 189kts
07-Jan-20 20:15 37.159204 -104.708313 5 10517ft 188kts
07-Jan-20 20:16 37.211165 -104.695452 5 10518ft 188kts
07-Jan-20 20:17 37.263336 -104.682541 6 10538ft 187kts
07-Jan-20 20:18 37.314562 -104.669826 8 10511ft 185kts
07-Jan-20 20:19 37.365519 -104.657067 8 10516ft 184kts
07-Jan-20 20:20 37.416398 -104.645789 7 10518ft 184kts
07-Jan-20 20:21 37.467323 -104.633505 7 10518ft 184kts
07-Jan-20 20:22 37.518168 -104.621147 7 10519ft 184kts
07-Jan-20 20:23 37.568835 -104.608797 7 10519ft 184kts
07-Jan-20 20:24 37.619618 -104.596397 7 10519ft 184kts
07-Jan-20 20:25 37.670520 -104.583945 7 10523ft 184kts
07-Jan-20 20:26 37.721279 -104.571515 7 10519ft 184kts
07-Jan-20 20:27 37.772105 -104.559071 8 10485ft 184kts
07-Jan-20 20:28 37.822294 -104.546730 8 10471ft 181kts
07-Jan-20 20:29 37.871605 -104.534597 8 10467ft 178kts
07-Jan-20 20:30 37.920656 -104.522516 8 10471ft 178kts
07-Jan-20 20:31 37.969536 -104.510461 8 10472ft 177kts
07-Jan-20 20:32 38.018058 -104.498478 8 10472ft 178kts
07-Jan-20 20:33 38.067111 -104.486346 8 10472ft 178kts
07-Jan-20 20:34 38.116195 -104.474207 8 10474ft 178kts
07-Jan-20 20:35 38.165231 -104.462212 7 10474ft 178kts
07-Jan-20 20:36 38.214271 -104.450263 7 10473ft 178kts
07-Jan-20 20:37 38.263142 -104.438181 7 10482ft 177kts
07-Jan-20 20:38 38.311943 -104.429645 350 10488ft 174kts
07-Jan-20 20:39 38.360914 -104.438410 345 10205ft 186kts
07-Jan-20 20:40 38.413107 -104.452524 340 9394ft 190kts
07-Jan-20 20:41 38.462795 -104.469721 341 8447ft 180kts
07-Jan-20 20:42 38.510000 -104.485812 341 7738ft 169kts
07-Jan-20 20:43 38.555268 -104.501172 341 7698ft 167kts
07-Jan-20 20:44 38.600699 -104.516572 341 7700ft 169kts
07-Jan-20 20:45 38.645164 -104.535117 317 7615ft 162kts
07-Jan-20 20:46 38.670252 -104.575172 306 7667ft 131kts
07-Jan-20 20:47 38.688568 -104.615089 298 7706ft 129kts
07-Jan-20 20:48 38.711976 -104.651876 311 7563ft 131kts
07-Jan-20 20:49 38.739871 -104.679437 333 7058ft 126kts
07-Jan-20 20:50 38.770478 -104.685677 355 6386ft 110kts
07-Jan-20 20:51 38.785485 -104.687047 225 6191ft 0kts
07-Jan-20 20:52 38.785485 -104.687047 225 6191ft 0kts
07-Jan-20 20:53 38.785381 -104.687323 271 6191ft 6kts
07-Jan-20 20:54 38.789581 -104.687907 0 6191ft 22kts
07-Jan-20 20:55 38.796386 -104.687864 0 6191ft 23kts
07-Jan-20 20:56 38.802630 -104.687952 325 6191ft 13kts
07-Jan-20 20:57 38.802782 -104.693551 270 6191ft 17kts
07-Jan-20 20:58 38.802789 -104.700142 271 6191ft 18kts
07-Jan-20 20:59 38.802798 -104.706981 269 6191ft 19kts
07-Jan-20 21:00 38.803184 -104.713453 347 6191ft 14kts
07-Jan-20 21:01 38.803633 -104.714731 270 6191ft 0kts
07-Jan-20 21:02 38.803638 -104.715687 270 6191ft 12kts
07-Jan-20 21:03 38.804988 -104.720432 314 6191ft 15kts
07-Jan-20 21:04 38.805132 -104.721960 270 6191ft 0kts

Navigation Log

Ident Type
Flight plan parsing failed, navigation log unavailable